createdAt,value
2022-11-21T00:00:19.915Z,2.48
2022-11-21T00:01:19.992Z,2.48
2022-11-21T00:02:20.191Z,2.48
2022-11-21T00:03:20.307Z,2.48
2022-11-21T00:04:20.470Z,2.48
2022-11-21T00:05:20.612Z,2.64
2022-11-21T00:06:20.726Z,2.72
2022-11-21T00:07:20.876Z,2.64
2022-11-21T00:08:20.925Z,2.8
2022-11-21T00:09:21.075Z,2.8
2022-11-21T00:10:21.238Z,2.64
2022-11-21T00:11:21.405Z,2.8
2022-11-21T00:12:21.512Z,2.48
2022-11-21T00:13:21.678Z,2.72
2022-11-21T00:14:21.831Z,2.48
2022-11-21T00:15:21.981Z,2.72
2022-11-21T00:16:22.065Z,3.04
2022-11-21T00:17:22.242Z,3.04
2022-11-21T00:18:22.377Z,2.72
2022-11-21T00:19:22.532Z,2.8
2022-11-21T00:20:22.690Z,3.12
2022-11-21T00:21:22.835Z,3.12
2022-11-21T00:22:22.987Z,3.04
2022-11-21T00:23:23.136Z,2.8
2022-11-21T00:24:23.295Z,2.88
2022-11-21T00:25:23.437Z,3.04
2022-11-21T00:26:23.596Z,2.88
2022-11-21T00:27:23.742Z,2.8
2022-11-21T00:28:23.907Z,2.88
2022-11-21T00:29:24.054Z,2.88
2022-11-21T00:30:24.206Z,2.8
2022-11-21T00:31:24.302Z,3.04
2022-11-21T00:32:24.393Z,2.88
2022-11-21T00:33:24.560Z,3.04
2022-11-21T00:34:24.892Z,2.88
2022-11-21T00:35:25.195Z,3.04
2022-11-21T00:36:24.959Z,3.12
2022-11-21T00:37:25.113Z,3.12
2022-11-21T00:38:25.276Z,2.88
2022-11-21T00:39:25.413Z,3.12
2022-11-21T00:40:25.568Z,3.2
2022-11-21T00:41:25.718Z,3.04
2022-11-21T00:42:25.860Z,3.04
2022-11-21T00:43:25.968Z,3.04
2022-11-21T00:44:26.414Z,3.04
2022-11-21T00:45:26.240Z,3.12
2022-11-21T00:46:26.362Z,3.12
2022-11-21T00:47:26.516Z,3.04
2022-11-21T00:48:26.666Z,2.88
2022-11-21T00:49:26.829Z,3.04
2022-11-21T00:50:26.979Z,3.04
2022-11-21T00:51:27.100Z,3.12
2022-11-21T00:52:27.256Z,3.04
2022-11-21T00:53:27.378Z,3.12
2022-11-21T00:54:27.787Z,3.2
2022-11-21T00:55:27.681Z,3.44
2022-11-21T00:56:27.826Z,3.28
2022-11-21T00:57:27.938Z,3.2
2022-11-21T00:58:28.086Z,3.12
2022-11-21T00:59:28.193Z,3.04
2022-11-21T01:00:28.384Z,3.12
2022-11-21T01:01:28.513Z,2.88
2022-11-21T01:02:28.593Z,3.04
2022-11-21T01:03:28.912Z,2.88
2022-11-21T01:04:29.085Z,3.04
2022-11-21T01:05:29.189Z,3.12
2022-11-21T01:06:29.305Z,3.12
2022-11-21T01:07:29.506Z,3.04
2022-11-21T01:08:29.608Z,3.04
2022-11-21T01:09:29.754Z,3.12
2022-11-21T01:10:29.909Z,2.88
2022-11-21T01:11:30.060Z,2.8
2022-11-21T01:12:30.206Z,2.8
2022-11-21T01:13:30.362Z,2.8
2022-11-21T01:14:30.522Z,2.88
2022-11-21T01:15:30.664Z,2.8
2022-11-21T01:16:30.803Z,2.88
2022-11-21T01:17:30.928Z,2.8
2022-11-21T01:18:31.058Z,2.72
2022-11-21T01:19:31.230Z,2.72
2022-11-21T01:20:31.380Z,2.72
2022-11-21T01:21:31.537Z,2.72
2022-11-21T01:22:31.670Z,2.88
2022-11-21T01:23:31.824Z,2.88
2022-11-21T01:24:31.974Z,2.72
2022-11-21T01:25:32.126Z,2.88
2022-11-21T01:26:32.281Z,2.8
2022-11-21T01:27:32.425Z,2.72
2022-11-21T01:28:32.572Z,2.72
2022-11-21T01:29:33.241Z,2.8
2022-11-21T01:30:33.033Z,2.72
2022-11-21T01:31:32.976Z,2.8
2022-11-21T01:32:33.075Z,2.72
2022-11-21T01:33:33.240Z,2.64
2022-11-21T01:34:33.392Z,2.64
2022-11-21T01:35:33.562Z,2.64
2022-11-21T01:36:33.708Z,2.64
2022-11-21T01:37:33.852Z,2.64
2022-11-21T01:38:33.997Z,2.64
2022-11-21T01:39:34.146Z,2.64
2022-11-21T01:40:34.254Z,2.48
2022-11-21T01:41:34.402Z,2.64
2022-11-21T01:42:34.549Z,2.48
2022-11-21T01:43:34.705Z,2.48
2022-11-21T01:44:34.860Z,2.64
2022-11-21T01:45:35.003Z,2.64
2022-11-21T01:46:35.143Z,2.48
2022-11-21T01:47:35.249Z,2.48
2022-11-21T01:48:35.358Z,2.48
2022-11-21T01:49:35.516Z,2.64
2022-11-21T01:50:35.623Z,2.48
2022-11-21T01:51:35.758Z,2.64
2022-11-21T01:52:35.919Z,2.72
2022-11-21T01:53:36.064Z,2.64
2022-11-21T01:54:36.230Z,2.48
2022-11-21T01:55:36.380Z,2.64
2022-11-21T01:56:36.854Z,2.48
2022-11-21T01:57:37.010Z,2.72
2022-11-21T01:58:36.826Z,2.72
2022-11-21T01:59:37.164Z,2.64
2022-11-21T02:00:37.734Z,2.72
2022-11-21T02:01:37.814Z,2.72
2022-11-21T02:02:37.328Z,2.88
2022-11-21T02:03:37.479Z,3.04
2022-11-21T02:04:37.591Z,3.04
2022-11-21T02:05:37.738Z,3.04
2022-11-21T02:06:37.886Z,3.04
2022-11-21T02:07:38.507Z,2.88
2022-11-21T02:08:38.658Z,3.12
2022-11-21T02:09:38.826Z,3.04
2022-11-21T02:10:38.450Z,2.88
2022-11-21T02:11:38.594Z,3.04
2022-11-21T02:12:38.741Z,2.88
2022-11-21T02:13:38.891Z,2.88
2022-11-21T02:14:39.049Z,2.88
2022-11-21T02:15:39.184Z,3.04
2022-11-21T02:16:39.348Z,3.04
2022-11-21T02:17:39.445Z,3.04
2022-11-21T02:18:39.613Z,2.88
2022-11-21T02:19:39.757Z,2.88
2022-11-21T02:20:39.905Z,2.88
2022-11-21T02:21:40.053Z,3.04
2022-11-21T02:22:40.167Z,3.04
2022-11-21T02:23:40.269Z,3.12
2022-11-21T02:24:40.398Z,3.12
2022-11-21T02:25:40.571Z,3.12
2022-11-21T02:26:40.721Z,3.12
2022-11-21T02:27:40.828Z,3.12
2022-11-21T02:28:40.963Z,3.12
2022-11-21T02:29:41.133Z,3.04
2022-11-21T02:30:41.259Z,3.04
2022-11-21T02:31:41.430Z,3.2
2022-11-21T02:32:41.574Z,3.2
2022-11-21T02:33:41.730Z,3.2
2022-11-21T02:34:41.878Z,3.2
2022-11-21T02:35:42.023Z,3.2
2022-11-21T02:36:42.188Z,3.12
2022-11-21T02:37:42.335Z,3.12
2022-11-21T02:38:42.485Z,3.2
2022-11-21T02:39:42.584Z,3.44
2022-11-21T02:40:42.736Z,3.2
2022-11-21T02:41:42.875Z,3.12
2022-11-21T02:42:43.062Z,3.12
2022-11-21T02:43:43.203Z,3.2
2022-11-21T02:44:43.309Z,3.12
2022-11-21T02:45:43.380Z,3.12
2022-11-21T02:46:43.495Z,3.12
2022-11-21T02:47:43.642Z,3.2
2022-11-21T02:48:43.756Z,3.2
2022-11-21T02:49:43.899Z,3.28
2022-11-21T02:50:44.000Z,3.44
2022-11-21T02:51:44.150Z,3.2
2022-11-21T02:52:44.300Z,3.44
2022-11-21T02:53:44.459Z,3.52
2022-11-21T02:54:44.608Z,3.44
2022-11-21T02:55:44.764Z,3.28
2022-11-21T02:56:44.915Z,3.28
2022-11-21T02:57:45.062Z,3.12
2022-11-21T02:58:45.155Z,3.2
2022-11-21T02:59:45.307Z,3.28
2022-11-21T03:00:45.488Z,3.2
2022-11-21T03:01:45.550Z,3.2
2022-11-21T03:02:45.653Z,3.28
2022-11-21T03:03:45.758Z,3.2
2022-11-21T03:04:45.861Z,3.28
2022-11-21T03:05:45.979Z,3.28
2022-11-21T03:06:46.129Z,3.28
2022-11-21T03:07:46.273Z,3.44
2022-11-21T03:08:46.423Z,3.28
2022-11-21T03:09:46.571Z,3.44
2022-11-21T03:10:46.727Z,3.44
2022-11-21T03:11:46.876Z,3.2
2022-11-21T03:12:47.046Z,3.28
2022-11-21T03:13:47.164Z,3.28
2022-11-21T03:14:47.280Z,3.28
2022-11-21T03:15:47.421Z,3.28
2022-11-21T03:16:47.532Z,3.52
2022-11-21T03:17:47.691Z,3.44
2022-11-21T03:18:47.844Z,3.52
2022-11-21T03:19:47.997Z,3.44
2022-11-21T03:20:48.144Z,3.6
2022-11-21T03:21:48.260Z,3.44
2022-11-21T03:22:48.440Z,3.44
2022-11-21T03:23:48.553Z,3.52
2022-11-21T03:24:48.691Z,3.52
2022-11-21T03:25:48.848Z,3.68
2022-11-21T03:26:48.997Z,3.6
2022-11-21T03:27:49.150Z,3.6
2022-11-21T03:28:49.308Z,3.52
2022-11-21T03:29:49.409Z,3.68
2022-11-21T03:30:49.546Z,3.6
2022-11-21T03:31:49.710Z,3.6
2022-11-21T03:32:49.855Z,3.6
2022-11-21T03:33:50.026Z,3.68
2022-11-21T03:34:50.157Z,3.68
2022-11-21T03:35:50.326Z,3.6
2022-11-21T03:36:50.467Z,3.68
2022-11-21T03:37:50.622Z,3.68
2022-11-21T03:38:50.768Z,3.92
2022-11-21T03:39:50.918Z,3.6
2022-11-21T03:40:51.065Z,3.68
2022-11-21T03:41:51.180Z,3.68
2022-11-21T03:42:51.316Z,3.84
2022-11-21T03:43:51.478Z,3.68
2022-11-21T03:44:51.631Z,3.6
2022-11-21T03:45:51.763Z,3.6
2022-11-21T03:46:51.886Z,3.6
2022-11-21T03:47:51.982Z,3.6
2022-11-21T03:48:52.137Z,3.68
2022-11-21T03:49:52.281Z,3.68
2022-11-21T03:50:52.437Z,3.68
2022-11-21T03:51:52.540Z,3.92
2022-11-21T03:52:52.689Z,3.92
2022-11-21T03:53:52.847Z,3.84
2022-11-21T03:54:52.991Z,4
2022-11-21T03:55:53.105Z,3.84
2022-11-21T03:56:53.241Z,3.84
2022-11-21T03:57:53.395Z,3.6
2022-11-21T03:58:53.556Z,3.84
2022-11-21T03:59:53.648Z,3.84
2022-11-21T04:00:53.773Z,3.68
2022-11-21T04:01:53.990Z,3.84
2022-11-21T04:02:54.088Z,3.84
2022-11-21T04:03:54.250Z,3.6
2022-11-21T04:04:54.358Z,3.84
2022-11-21T04:05:54.503Z,3.92
2022-11-21T04:06:54.662Z,3.92
2022-11-21T04:07:54.807Z,3.92
2022-11-21T04:08:54.961Z,3.92
2022-11-21T04:09:55.121Z,3.68
2022-11-21T04:10:55.279Z,3.68
2022-11-21T04:11:55.424Z,3.68
2022-11-21T04:12:55.564Z,3.92
2022-11-21T04:13:55.719Z,3.84
2022-11-21T04:14:55.869Z,3.68
2022-11-21T04:15:55.959Z,3.68
2022-11-21T04:16:56.061Z,3.84
2022-11-21T04:17:56.228Z,3.68
2022-11-21T04:18:56.374Z,3.84
2022-11-21T04:19:56.550Z,3.68
2022-11-21T04:20:56.679Z,3.68
2022-11-21T04:21:56.833Z,3.52
2022-11-21T04:22:56.981Z,3.6
2022-11-21T04:23:57.081Z,3.6
2022-11-21T04:24:57.238Z,3.6
2022-11-21T04:25:57.334Z,3.68
2022-11-21T04:26:57.489Z,3.68
2022-11-21T04:27:57.640Z,3.6
2022-11-21T04:28:57.800Z,3.6
2022-11-21T04:29:57.949Z,3.68
2022-11-21T04:31:00.594Z,3.6
2022-11-21T04:31:58.196Z,3.52
2022-11-21T04:32:58.355Z,3.6
2022-11-21T04:33:58.512Z,3.6
2022-11-21T04:34:58.651Z,3.68
2022-11-21T04:35:58.811Z,3.84
2022-11-21T04:36:58.988Z,3.68
2022-11-21T04:37:59.104Z,3.68
2022-11-21T04:38:59.208Z,3.6
2022-11-21T04:39:59.313Z,3.6
2022-11-21T04:40:59.442Z,3.6
2022-11-21T04:41:59.563Z,3.68
2022-11-21T04:42:59.661Z,3.68
2022-11-21T04:43:59.825Z,3.6
2022-11-21T04:44:59.960Z,3.6
2022-11-21T04:46:00.113Z,3.68
2022-11-21T04:47:04.974Z,3.68
2022-11-21T04:48:00.427Z,3.6
2022-11-21T04:49:00.518Z,3.68
2022-11-21T04:50:00.670Z,3.6
2022-11-21T04:51:00.828Z,3.84
2022-11-21T04:52:00.976Z,3.84
2022-11-21T04:53:01.124Z,3.92
2022-11-21T04:54:01.286Z,3.68
2022-11-21T04:55:01.432Z,3.68
2022-11-21T04:56:01.539Z,3.6
2022-11-21T04:57:01.679Z,3.68
2022-11-21T04:58:01.838Z,3.6
2022-11-21T04:59:01.986Z,3.6
2022-11-21T05:00:02.137Z,3.68
2022-11-21T05:01:02.250Z,3.6
2022-11-21T05:02:02.807Z,3.6
2022-11-21T05:03:02.923Z,3.68
2022-11-21T05:04:03.021Z,3.6
2022-11-21T05:05:02.834Z,3.68
2022-11-21T05:06:02.939Z,3.84
2022-11-21T05:07:03.497Z,3.92
2022-11-21T05:08:03.225Z,3.84
2022-11-21T05:09:03.381Z,3.68
2022-11-21T05:10:03.496Z,3.6
2022-11-21T05:11:03.591Z,3.6
2022-11-21T05:12:03.752Z,3.6
2022-11-21T05:13:03.841Z,3.6
2022-11-21T05:14:03.939Z,3.6
2022-11-21T05:15:04.116Z,3.6
2022-11-21T05:16:04.245Z,3.6
2022-11-21T05:17:04.342Z,3.6
2022-11-21T05:18:04.515Z,3.68
2022-11-21T05:19:04.665Z,3.68
2022-11-21T05:20:04.814Z,3.6
2022-11-21T05:21:04.973Z,3.52
2022-11-21T05:22:05.122Z,3.84
2022-11-21T05:23:05.263Z,3.84
2022-11-21T05:24:05.419Z,3.6
2022-11-21T05:25:05.568Z,3.52
2022-11-21T05:26:05.723Z,3.6
2022-11-21T05:27:05.866Z,3.44
2022-11-21T05:28:06.022Z,3.6
2022-11-21T05:29:06.175Z,3.6
2022-11-21T05:30:06.334Z,3.6
2022-11-21T05:31:06.462Z,3.6
2022-11-21T05:32:06.589Z,3.6
2022-11-21T05:33:06.733Z,3.84
2022-11-21T05:34:06.884Z,3.68
2022-11-21T05:35:07.038Z,3.6
2022-11-21T05:36:07.192Z,3.6
2022-11-21T05:37:07.343Z,3.6
2022-11-21T05:38:07.440Z,3.68
2022-11-21T05:39:07.594Z,3.68
2022-11-21T05:40:07.745Z,3.6
2022-11-21T05:41:07.904Z,3.6
2022-11-21T05:42:08.036Z,3.6
2022-11-21T05:43:08.147Z,3.68
2022-11-21T05:44:08.300Z,3.68
2022-11-21T05:45:08.402Z,3.6
2022-11-21T05:46:08.537Z,3.6
2022-11-21T05:47:08.645Z,3.6
2022-11-21T05:48:08.800Z,3.6
2022-11-21T05:49:08.955Z,3.68
2022-11-21T05:50:09.043Z,3.6
2022-11-21T05:51:09.197Z,3.6
2022-11-21T05:52:09.370Z,3.6
2022-11-21T05:53:09.528Z,3.6
2022-11-21T05:54:09.623Z,3.6
2022-11-21T05:55:09.771Z,3.52
2022-11-21T05:56:09.917Z,3.6
2022-11-21T05:57:10.063Z,3.52
2022-11-21T05:58:10.215Z,3.6
2022-11-21T05:59:10.321Z,3.6
2022-11-21T06:00:10.472Z,3.52
2022-11-21T06:01:10.614Z,3.52
2022-11-21T06:02:10.770Z,3.52
2022-11-21T06:03:10.951Z,3.52
2022-11-21T06:04:11.030Z,3.52
2022-11-21T06:05:11.162Z,3.52
2022-11-21T06:06:11.306Z,3.52
2022-11-21T06:07:11.452Z,3.52
2022-11-21T06:08:11.578Z,3.44
2022-11-21T06:09:11.743Z,3.44
2022-11-21T06:10:11.900Z,3.52
2022-11-21T06:11:12.041Z,3.44
2022-11-21T06:12:12.190Z,3.28
2022-11-21T06:13:12.383Z,3.44
2022-11-21T06:14:12.510Z,3.44
2022-11-21T06:15:12.628Z,3.28
2022-11-21T06:16:12.778Z,3.28
2022-11-21T06:17:12.941Z,3.44
2022-11-21T06:18:13.036Z,3.2
2022-11-21T06:19:13.183Z,3.28
2022-11-21T06:20:13.309Z,3.28
2022-11-21T06:21:13.450Z,3.2
2022-11-21T06:22:13.599Z,3.04
2022-11-21T06:23:13.754Z,3.04
2022-11-21T06:24:17.033Z,2.8
2022-11-21T06:25:14.056Z,2.72
2022-11-21T06:26:14.211Z,2.48
2022-11-21T06:27:14.367Z,2.4
2022-11-21T06:28:14.530Z,2.4
2022-11-21T06:29:14.657Z,2.4
2022-11-21T06:30:19.142Z,2.32
2022-11-21T06:31:14.905Z,2.24
2022-11-21T06:32:15.052Z,2.24
2022-11-21T06:33:15.153Z,2.08
2022-11-21T06:34:15.270Z,2.08
2022-11-21T06:35:15.426Z,2
2022-11-21T06:36:15.567Z,1.92
2022-11-21T06:37:15.719Z,1.84
2022-11-21T06:38:15.864Z,1.84
2022-11-21T06:39:16.004Z,1.92
2022-11-21T06:40:16.128Z,1.92
2022-11-21T06:41:16.230Z,1.68
2022-11-21T06:42:16.380Z,1.92
2022-11-21T06:43:16.535Z,1.84
2022-11-21T06:44:16.691Z,1.92
2022-11-21T06:45:16.850Z,1.84
2022-11-21T06:46:16.977Z,1.68
2022-11-21T06:47:17.126Z,1.84
2022-11-21T06:48:17.227Z,1.92
2022-11-21T06:49:17.384Z,1.84
2022-11-21T06:50:17.543Z,1.68
2022-11-21T06:51:17.694Z,1.6
2022-11-21T06:52:17.844Z,1.6
2022-11-21T06:53:18.001Z,1.52
2022-11-21T06:54:18.149Z,1.44
2022-11-21T06:55:18.305Z,1.44
2022-11-21T06:56:18.494Z,1.2
2022-11-21T06:57:18.617Z,1.2
2022-11-21T06:58:18.750Z,1.12
2022-11-21T06:59:18.898Z,1.12
2022-11-21T07:00:19.071Z,1.12
2022-11-21T07:01:19.257Z,1.04
2022-11-21T07:02:19.362Z,0.88
2022-11-21T07:03:19.498Z,1.04
2022-11-21T07:04:19.678Z,1.04
2022-11-21T07:05:19.769Z,1.04
2022-11-21T07:06:19.870Z,0.88
2022-11-21T07:07:20.032Z,1.04
2022-11-21T07:08:20.166Z,1.04
2022-11-21T07:09:34.056Z,1.04
2022-11-21T07:10:20.474Z,0.8
2022-11-21T07:11:25.154Z,0.8
2022-11-21T07:12:20.742Z,0.8
2022-11-21T07:13:20.886Z,0.64
2022-11-21T07:14:21.029Z,0.72
2022-11-21T07:15:21.186Z,0.72
2022-11-21T07:16:21.314Z,0.64
2022-11-21T07:17:21.469Z,0.48
2022-11-21T07:18:21.642Z,0.72
2022-11-21T07:19:21.817Z,0.48
2022-11-21T07:20:21.943Z,0.4
2022-11-21T07:21:22.091Z,0.4
2022-11-21T07:22:22.239Z,0.4
2022-11-21T07:23:22.348Z,0.4
2022-11-21T07:24:22.493Z,0.48
2022-11-21T07:25:22.644Z,0.48
2022-11-21T07:26:22.797Z,0.4
2022-11-21T07:27:22.945Z,0.4
2022-11-21T07:28:23.095Z,0.4
2022-11-21T07:29:23.199Z,0.4
2022-11-21T07:30:23.366Z,0.4
2022-11-21T07:31:23.534Z,0.4
2022-11-21T07:32:23.653Z,0.4
2022-11-21T07:33:23.818Z,0.4
2022-11-21T07:34:23.973Z,0.24
2022-11-21T07:35:24.065Z,0.4
2022-11-21T07:36:24.219Z,0.4
2022-11-21T07:37:24.365Z,0.48
2022-11-21T07:38:24.515Z,0.4
2022-11-21T07:39:24.664Z,0.48
2022-11-21T07:40:24.865Z,0.4
2022-11-21T07:41:24.925Z,0.4
2022-11-21T07:42:25.072Z,0.4
2022-11-21T07:43:25.219Z,0.4
2022-11-21T07:44:25.385Z,0.4
2022-11-21T07:45:25.518Z,0.4
2022-11-21T07:46:25.662Z,0.4
2022-11-21T07:47:25.771Z,0.4
2022-11-21T07:48:25.867Z,0.4
2022-11-21T07:49:26.309Z,0.4
2022-11-21T07:50:26.190Z,0.4
2022-11-21T07:51:26.318Z,0.48
2022-11-21T07:52:26.455Z,0.4
2022-11-21T07:53:26.569Z,0.4
2022-11-21T07:54:26.729Z,0.48
2022-11-21T07:55:26.886Z,0.64
2022-11-21T07:56:27.039Z,0.64
2022-11-21T07:57:27.189Z,0.64
2022-11-21T07:58:27.339Z,0.48
2022-11-21T07:59:27.703Z,0.4
2022-11-21T08:00:27.682Z,0.48
2022-11-21T08:01:27.835Z,0.32
2022-11-21T08:02:27.940Z,0.48
2022-11-21T08:03:28.037Z,0.32
2022-11-21T08:04:28.135Z,0.32
2022-11-21T08:05:28.296Z,0.24
2022-11-21T08:06:28.449Z,0.24
2022-11-21T08:07:28.668Z,0.32
2022-11-21T08:08:28.771Z,0.24
2022-11-21T08:09:29.076Z,0.4
2022-11-21T08:10:29.231Z,0.24
2022-11-21T08:11:29.210Z,0.08
2022-11-21T08:12:29.367Z,0.24
2022-11-21T08:13:29.507Z,0.08
2022-11-21T08:14:29.673Z,0.24
2022-11-21T08:15:29.819Z,0.08
2022-11-21T08:16:29.955Z,0.08
2022-11-21T08:17:30.105Z,0.08
2022-11-21T08:18:30.281Z,0.08
2022-11-21T08:19:30.561Z,0.24
2022-11-21T08:20:30.570Z,0.24
2022-11-21T08:21:30.719Z,0.24
2022-11-21T08:22:30.876Z,0.24
2022-11-21T08:23:31.037Z,0.32
2022-11-21T08:24:31.116Z,0.24
2022-11-21T08:25:31.265Z,0.24
2022-11-21T08:26:31.384Z,0.32
2022-11-21T08:27:31.533Z,0.24
2022-11-21T08:28:31.684Z,0.24
2022-11-21T08:29:31.839Z,0.08
2022-11-21T08:30:32.014Z,0.32
2022-11-21T08:31:32.123Z,0.24
2022-11-21T08:32:32.224Z,0.4
2022-11-21T08:33:32.324Z,0.4
2022-11-21T08:34:32.440Z,0.08
2022-11-21T08:35:32.559Z,0.08
2022-11-21T08:36:32.698Z,0.08
2022-11-21T08:37:32.806Z,0
2022-11-21T08:38:32.992Z,0
2022-11-21T08:39:33.100Z,-0.08
2022-11-21T08:40:33.261Z,-0.24
2022-11-21T08:41:33.405Z,-0.24
2022-11-21T08:42:33.562Z,-0.32
2022-11-21T08:43:33.710Z,-0.24
2022-11-21T08:44:33.863Z,-0.32
2022-11-21T08:45:34.002Z,-0.32
2022-11-21T08:46:34.148Z,-0.32
2022-11-21T08:47:34.295Z,-0.32
2022-11-21T08:48:34.414Z,-0.24
2022-11-21T08:49:34.563Z,-0.32
2022-11-21T08:50:34.715Z,-0.32
2022-11-21T08:51:34.887Z,-0.32
2022-11-21T08:52:35.014Z,-0.08
2022-11-21T08:53:35.170Z,-0.32
2022-11-21T08:54:35.329Z,-0.4
2022-11-21T08:55:35.459Z,-0.4
2022-11-21T08:56:35.633Z,-0.64
2022-11-21T08:57:35.793Z,-0.48
2022-11-21T08:58:35.924Z,-0.4
2022-11-21T08:59:36.084Z,-0.4
2022-11-21T09:00:36.229Z,-0.24
2022-11-21T09:01:36.396Z,-0.32
2022-11-21T09:02:36.537Z,0
2022-11-21T09:03:36.636Z,-0.08
2022-11-21T09:04:36.785Z,-0.08
2022-11-21T09:05:36.921Z,-0.08
2022-11-21T09:06:37.608Z,-0.08
2022-11-21T09:07:37.319Z,-0.08
2022-11-21T09:08:37.325Z,-0.32
2022-11-21T09:09:37.984Z,-0.08
2022-11-21T09:10:37.587Z,-0.08
2022-11-21T09:11:37.681Z,-0.24
2022-11-21T09:12:37.845Z,-0.24
2022-11-21T09:13:37.995Z,-0.24
2022-11-21T09:14:38.151Z,-0.24
2022-11-21T09:15:38.290Z,-0.24
2022-11-21T09:16:38.467Z,-0.32
2022-11-21T09:17:38.609Z,-0.24
2022-11-21T09:18:38.710Z,-0.08
2022-11-21T09:19:38.852Z,-0.08
2022-11-21T09:20:39.042Z,-0.08
2022-11-21T09:21:39.163Z,-0.08
2022-11-21T09:22:39.318Z,0.08
2022-11-21T09:23:39.460Z,0.24
2022-11-21T09:24:39.573Z,0.32
2022-11-21T09:25:39.716Z,0.08
2022-11-21T09:26:39.866Z,-0.08
2022-11-21T09:27:40.023Z,-0.24
2022-11-21T09:28:40.176Z,-0.08
2022-11-21T09:29:40.321Z,-0.08
2022-11-21T09:30:40.460Z,-0.24
2022-11-21T09:31:40.645Z,0
2022-11-21T09:32:40.763Z,-0.08
2022-11-21T09:33:40.939Z,0
2022-11-21T09:34:41.022Z,-0.08
2022-11-21T09:35:41.207Z,0
2022-11-21T09:36:41.350Z,-0.24
2022-11-21T09:37:41.488Z,-0.24
2022-11-21T09:38:41.624Z,-0.24
2022-11-21T09:39:41.792Z,-0.24
2022-11-21T09:40:41.924Z,0
2022-11-21T09:41:42.088Z,-0.24
2022-11-21T09:42:42.237Z,0.32
2022-11-21T09:43:42.345Z,0.08
2022-11-21T09:44:42.499Z,0.24
2022-11-21T09:45:42.577Z,-0.08
2022-11-21T09:46:42.711Z,-0.08
2022-11-21T09:47:42.848Z,-0.08
2022-11-21T09:48:42.999Z,0
2022-11-21T09:49:43.148Z,0
2022-11-21T09:50:43.307Z,0.24
2022-11-21T09:51:43.415Z,0
2022-11-21T09:52:43.563Z,0.24
2022-11-21T09:53:43.702Z,0
2022-11-21T09:54:43.811Z,-0.08
2022-11-21T09:55:43.952Z,-0.08
2022-11-21T09:56:44.108Z,-0.08
2022-11-21T09:57:44.266Z,0
2022-11-21T09:58:44.420Z,0.08
2022-11-21T09:59:44.571Z,0.24
2022-11-21T10:00:44.674Z,0.24
2022-11-21T10:01:44.755Z,0.24
2022-11-21T10:02:44.927Z,0
2022-11-21T10:03:45.057Z,0
2022-11-21T10:04:45.221Z,-0.08
2022-11-21T10:05:45.323Z,-0.08
2022-11-21T10:06:45.460Z,-0.08
2022-11-21T10:07:47.192Z,0.24
2022-11-21T10:08:45.789Z,-0.08
2022-11-21T10:09:45.939Z,0
2022-11-21T10:10:46.037Z,0.08
2022-11-21T10:11:46.180Z,0.4
2022-11-21T10:12:46.341Z,0
2022-11-21T10:13:46.486Z,-0.08
2022-11-21T10:14:47.950Z,0
2022-11-21T10:15:47.112Z,0.24
2022-11-21T10:16:46.898Z,0
2022-11-21T10:17:48.114Z,0.32
2022-11-21T10:18:47.139Z,0.08
2022-11-21T10:19:47.296Z,0
2022-11-21T10:20:47.444Z,0
2022-11-21T10:21:47.547Z,-0.08
2022-11-21T10:22:47.712Z,0.08
2022-11-21T10:23:47.858Z,-0.08
2022-11-21T10:24:47.958Z,-0.08
2022-11-21T10:25:48.121Z,0.24
2022-11-21T10:26:48.254Z,0.24
2022-11-21T10:27:48.438Z,0.24
2022-11-21T10:28:48.558Z,0.24
2022-11-21T10:29:48.704Z,0
2022-11-21T10:30:48.841Z,0.32
2022-11-21T10:31:49.011Z,0.4
2022-11-21T10:32:49.165Z,0.24
2022-11-21T10:33:49.315Z,0
2022-11-21T10:34:49.461Z,-0.08
2022-11-21T10:35:49.652Z,0.32
2022-11-21T10:36:49.816Z,0.24
2022-11-21T10:37:49.964Z,0.32
2022-11-21T10:38:50.134Z,0.32
2022-11-21T10:39:50.299Z,0.08
2022-11-21T10:40:50.425Z,-0.08
2022-11-21T10:41:50.577Z,0.08
2022-11-21T10:42:50.750Z,0
2022-11-21T10:43:50.870Z,0.24
2022-11-21T10:44:51.025Z,0.08
2022-11-21T10:45:51.166Z,0.24
2022-11-21T10:46:51.270Z,0.32
2022-11-21T10:47:51.432Z,0.24
2022-11-21T10:48:51.590Z,0
2022-11-21T10:49:51.733Z,0.48
2022-11-21T10:50:51.889Z,0
2022-11-21T10:51:52.031Z,0.24
2022-11-21T10:52:52.187Z,0.24
2022-11-21T10:53:52.346Z,0.08
2022-11-21T10:54:52.502Z,0.08
2022-11-21T10:55:52.598Z,0.24
2022-11-21T10:56:52.753Z,0.24
2022-11-21T10:57:52.843Z,0.24
2022-11-21T10:58:53.015Z,0.08
2022-11-21T10:59:53.156Z,0.32
2022-11-21T11:00:53.312Z,0.64
2022-11-21T11:01:53.455Z,0.48
2022-11-21T11:02:53.605Z,0.32
2022-11-21T11:04:13.748Z,0.08
2022-11-21T11:04:54.328Z,0.64
2022-11-21T11:05:54.053Z,0.4
2022-11-21T11:06:54.204Z,0.32
2022-11-21T11:07:54.370Z,0.32
2022-11-21T11:08:54.461Z,0.08
2022-11-21T11:09:54.612Z,0
2022-11-21T11:10:54.762Z,0.08
2022-11-21T11:11:54.915Z,0
2022-11-21T11:12:55.077Z,0
2022-11-21T11:13:55.237Z,0.08
2022-11-21T11:14:55.374Z,0.48
2022-11-21T11:15:55.508Z,0.8
2022-11-21T11:16:55.711Z,0.64
2022-11-21T11:17:55.827Z,0.72
2022-11-21T11:18:55.977Z,0.88
2022-11-21T11:19:56.134Z,1.04
2022-11-21T11:20:56.299Z,0.8
2022-11-21T11:21:56.435Z,0.72
2022-11-21T11:22:56.589Z,0.64
2022-11-21T11:23:56.688Z,0.48
2022-11-21T11:25:00.369Z,0.24
2022-11-21T11:25:56.889Z,0.4
2022-11-21T11:26:57.046Z,0.48
2022-11-21T11:27:57.192Z,0.32
2022-11-21T11:28:57.373Z,0.4
2022-11-21T11:29:57.494Z,0.48
2022-11-21T11:30:58.930Z,0.4
2022-11-21T11:31:57.747Z,0.48
2022-11-21T11:32:57.906Z,0.64
2022-11-21T11:33:58.048Z,0.72
2022-11-21T11:34:58.193Z,0.88
2022-11-21T11:35:58.354Z,0.88
2022-11-21T11:36:58.460Z,0.72
2022-11-21T11:37:58.593Z,0.72
2022-11-21T11:38:58.751Z,0.8
2022-11-21T11:39:58.859Z,0.88
2022-11-21T11:40:59.004Z,0.88
2022-11-21T11:41:59.159Z,0.8
2022-11-21T11:42:59.322Z,1.04
2022-11-21T11:43:59.453Z,0.8
2022-11-21T11:44:59.560Z,0.64
2022-11-21T11:45:59.703Z,0.64
2022-11-21T11:46:59.875Z,0.72
2022-11-21T11:47:59.983Z,0.64
2022-11-21T11:49:20.627Z,0.48
2022-11-21T11:50:00.282Z,0.72
2022-11-21T11:51:00.420Z,0.64
2022-11-21T11:52:00.531Z,0.8
2022-11-21T11:53:00.683Z,0.88
2022-11-21T11:54:01.316Z,1.44
2022-11-21T11:55:00.931Z,1.12
2022-11-21T11:56:01.075Z,0.88
2022-11-21T11:57:01.246Z,0.72
2022-11-21T11:58:01.390Z,0.72
2022-11-21T11:59:01.537Z,1.12
2022-11-21T12:00:01.683Z,1.12
2022-11-21T12:01:01.845Z,1.52
2022-11-21T12:02:01.968Z,1.04
2022-11-21T12:03:02.050Z,0.88
2022-11-21T12:04:02.204Z,1.04
2022-11-21T12:05:02.367Z,1.44
2022-11-21T12:06:07.668Z,1.52
2022-11-21T12:07:54.271Z,1.12
2022-11-21T12:09:02.907Z,1.68
2022-11-21T12:10:03.055Z,1.68
2022-11-21T12:11:03.201Z,1.2
2022-11-21T12:12:03.305Z,1.12
2022-11-21T12:13:03.465Z,0.8
2022-11-21T12:14:03.597Z,0.88
2022-11-21T12:15:03.721Z,1.04
2022-11-21T12:16:10.120Z,1.2
2022-11-21T12:17:03.996Z,1.28
2022-11-21T12:18:04.109Z,1.28
2022-11-21T12:19:04.268Z,1.04
2022-11-21T12:20:04.421Z,1.2
2022-11-21T12:21:04.579Z,1.28
2022-11-21T12:22:04.717Z,1.04
2022-11-21T12:23:04.876Z,1.12
2022-11-21T12:24:05.025Z,0.88
2022-11-21T12:25:05.172Z,1.12
2022-11-21T12:26:05.334Z,0.8
2022-11-21T12:27:05.480Z,0.72
2022-11-21T12:28:05.622Z,0.8
2022-11-21T12:29:05.778Z,0.88
2022-11-21T12:30:05.924Z,1.52
2022-11-21T12:31:06.100Z,1.04
2022-11-21T12:32:06.237Z,0.88
2022-11-21T12:33:08.765Z,0.88
2022-11-21T12:34:06.537Z,0.88
2022-11-21T12:35:06.671Z,1.04
2022-11-21T12:36:17.129Z,1.2
2022-11-21T12:37:06.892Z,1.12
2022-11-21T12:38:07.027Z,1.12
2022-11-21T12:39:07.185Z,1.04
2022-11-21T12:40:07.337Z,1.12
2022-11-21T12:41:07.433Z,1.04
2022-11-21T12:42:07.588Z,1.52
2022-11-21T12:43:07.691Z,1.6
2022-11-21T12:44:07.847Z,1.44
2022-11-21T12:45:08.007Z,1.6
2022-11-21T12:46:08.149Z,1.44
2022-11-21T12:47:08.243Z,2
2022-11-21T12:48:08.393Z,1.84
2022-11-21T12:49:08.545Z,1.84
2022-11-21T12:50:08.709Z,1.84
2022-11-21T12:51:08.849Z,1.92
2022-11-21T12:52:09.000Z,1.6
2022-11-21T12:53:09.157Z,1.52
2022-11-21T12:54:09.309Z,1.44
2022-11-21T12:55:09.476Z,1.44
2022-11-21T12:56:09.568Z,1.6
2022-11-21T12:57:09.710Z,1.44
2022-11-21T12:58:09.874Z,1.28
2022-11-21T12:59:10.015Z,1.28
2022-11-21T13:00:10.174Z,1.44
2022-11-21T13:01:10.351Z,1.44
2022-11-21T13:02:10.411Z,1.28
2022-11-21T13:03:10.572Z,1.6
2022-11-21T13:04:10.719Z,1.52
2022-11-21T13:05:10.825Z,1.44
2022-11-21T13:06:10.929Z,1.2
2022-11-21T13:07:11.120Z,1.44
2022-11-21T13:08:11.246Z,1.52
2022-11-21T13:09:11.388Z,1.92
2022-11-21T13:10:11.495Z,1.52
2022-11-21T13:11:11.651Z,1.12
2022-11-21T13:12:11.836Z,1.2
2022-11-21T13:13:11.985Z,1.44
2022-11-21T13:14:12.079Z,1.52
2022-11-21T13:15:12.242Z,1.52
2022-11-21T13:16:12.387Z,1.6
2022-11-21T13:17:12.484Z,1.6
2022-11-21T13:18:12.608Z,1.52
2022-11-21T13:19:12.746Z,1.52
2022-11-21T13:20:12.904Z,1.52
2022-11-21T13:21:13.061Z,1.44
2022-11-21T13:22:13.167Z,1.6
2022-11-21T13:23:13.307Z,1.52
2022-11-21T13:24:13.459Z,1.52
2022-11-21T13:25:13.605Z,1.52
2022-11-21T13:26:13.715Z,1.44
2022-11-21T13:27:13.861Z,1.44
2022-11-21T13:28:13.975Z,1.6